createdAt,value
2022-11-18T00:01:41.411Z,0.51
2022-11-18T00:04:10.012Z,0.47
2022-11-18T00:06:37.773Z,0.43
2022-11-18T00:09:06.272Z,0.44
2022-11-18T00:11:52.726Z,0.42
2022-11-18T00:14:24.280Z,0.41
2022-11-18T00:17:04.789Z,0.41
2022-11-18T00:19:38.541Z,0.42
2022-11-18T00:22:11.513Z,0.43
2022-11-18T00:24:39.829Z,0.46
2022-11-18T00:27:07.819Z,0.48
2022-11-18T00:29:35.545Z,0.50
2022-11-18T00:32:03.505Z,0.51
2022-11-18T00:34:31.440Z,0.52
2022-11-18T00:36:59.424Z,0.55
2022-11-18T00:39:27.436Z,0.58
2022-11-18T00:42:14.123Z,0.61
2022-11-18T00:44:42.082Z,0.62
2022-11-18T00:47:10.010Z,0.60
2022-11-18T00:49:37.743Z,0.60
2022-11-18T00:52:06.734Z,0.59
2022-11-18T00:54:34.731Z,0.59
2022-11-18T00:57:04.601Z,0.60
2022-11-18T00:59:32.466Z,0.58
2022-11-18T01:02:00.178Z,0.55
2022-11-18T01:04:28.309Z,0.57
2022-11-18T01:06:56.217Z,0.58
2022-11-18T01:09:24.453Z,0.56
2022-11-18T01:12:10.802Z,0.56
2022-11-18T01:14:38.578Z,0.57
2022-11-18T01:17:06.593Z,0.60
2022-11-18T01:19:36.362Z,0.60
2022-11-18T01:22:04.765Z,0.57
2022-11-18T01:24:34.268Z,0.55
2022-11-18T01:27:02.760Z,0.56
2022-11-18T01:29:30.741Z,0.55
2022-11-18T01:34:46.691Z,0.57
2022-11-18T01:37:14.738Z,0.57
2022-11-18T01:39:42.487Z,0.57
2022-11-18T01:42:17.631Z,0.49
2022-11-18T01:45:30.454Z,0.47
2022-11-18T01:48:03.193Z,0.49
2022-11-18T01:50:33.297Z,0.51
2022-11-18T01:53:07.995Z,0.51
2022-11-18T01:55:41.488Z,0.52
2022-11-18T01:58:27.969Z,0.53
2022-11-18T02:00:55.834Z,0.55
2022-11-18T02:03:25.676Z,0.56
2022-11-18T02:05:55.193Z,0.56
2022-11-18T02:08:23.701Z,0.58
2022-11-18T02:10:51.619Z,0.60
2022-11-18T02:13:19.964Z,0.62
2022-11-18T02:15:53.569Z,0.63
2022-11-18T02:18:47.865Z,0.64
2022-11-18T02:21:39.451Z,0.56
2022-11-18T02:24:40.265Z,0.59
2022-11-18T02:27:18.326Z,0.62
2022-11-18T02:29:58.930Z,0.63
2022-11-18T02:32:33.832Z,0.64
2022-11-18T02:35:11.259Z,0.64
2022-11-18T02:38:00.659Z,0.64
2022-11-18T02:40:33.705Z,0.63
2022-11-18T02:43:26.670Z,0.62
2022-11-18T02:46:00.475Z,0.61
2022-11-18T02:48:32.931Z,0.59
2022-11-18T02:51:03.988Z,0.59
2022-11-18T02:53:33.807Z,0.59
2022-11-18T02:56:04.349Z,0.61
2022-11-18T02:58:32.061Z,0.58
2022-11-18T03:01:01.963Z,0.57
2022-11-18T03:03:31.990Z,0.56
2022-11-18T03:06:16.772Z,0.56
2022-11-18T03:08:55.686Z,0.56
2022-11-18T03:11:27.186Z,0.55
2022-11-18T03:14:06.058Z,0.53
2022-11-18T03:16:49.431Z,0.51
2022-11-18T03:19:41.401Z,0.49
2022-11-18T03:22:26.106Z,0.46
2022-11-18T03:25:20.229Z,0.42
2022-11-18T03:28:01.044Z,0.41
2022-11-18T03:30:31.474Z,0.41
2022-11-18T03:33:06.794Z,0.40
2022-11-18T03:35:37.751Z,0.39
2022-11-18T03:38:12.167Z,0.39
2022-11-18T03:40:46.748Z,0.41
2022-11-18T03:43:22.575Z,0.44
2022-11-18T03:46:02.118Z,0.46
2022-11-18T03:48:34.694Z,0.49
2022-11-18T03:51:08.784Z,0.51
2022-11-18T03:53:50.991Z,0.52
2022-11-18T03:56:26.250Z,0.52
2022-11-18T03:59:00.647Z,0.54
2022-11-18T04:01:35.876Z,0.56
2022-11-18T04:04:05.188Z,0.58
2022-11-18T04:06:48.452Z,0.55
2022-11-18T04:09:25.961Z,0.56
2022-11-18T04:12:02.832Z,0.57
2022-11-18T04:14:43.440Z,0.56
2022-11-18T04:17:14.904Z,0.54
2022-11-18T04:19:43.393Z,0.52
2022-11-18T04:22:12.185Z,0.54
2022-11-18T04:24:40.971Z,0.56
2022-11-18T04:27:09.493Z,0.57
2022-11-18T04:29:37.231Z,0.57
2022-11-18T04:32:06.213Z,0.59
2022-11-18T04:34:34.151Z,0.62
2022-11-18T04:37:01.905Z,0.62
2022-11-18T04:39:29.647Z,0.62
2022-11-18T04:41:57.494Z,0.63
2022-11-18T04:44:28.725Z,0.58
2022-11-18T04:46:58.487Z,0.59
2022-11-18T04:49:28.162Z,0.59
2022-11-18T04:51:57.056Z,0.61
2022-11-18T04:54:26.937Z,0.60
2022-11-18T04:56:55.818Z,0.54
2022-11-18T04:59:27.204Z,0.51
2022-11-18T05:01:56.578Z,0.49
2022-11-18T05:04:27.847Z,0.49
2022-11-18T05:06:56.257Z,0.50
2022-11-18T05:09:30.270Z,0.52
2022-11-18T05:12:19.920Z,0.55
2022-11-18T05:14:50.535Z,0.58
2022-11-18T05:17:19.643Z,0.59
2022-11-18T05:19:47.659Z,0.60
2022-11-18T05:22:16.000Z,0.61
2022-11-18T05:24:44.029Z,0.62
2022-11-18T05:27:13.086Z,0.63
2022-11-18T05:29:41.035Z,0.64
2022-11-18T05:32:09.639Z,0.64
2022-11-18T05:34:37.535Z,0.65
2022-11-18T05:37:05.479Z,0.66
2022-11-18T05:39:34.225Z,0.65
2022-11-18T05:42:21.364Z,0.64
2022-11-18T05:44:57.731Z,0.62
2022-11-18T05:47:27.421Z,0.57
2022-11-18T05:49:55.512Z,0.52
2022-11-18T05:52:23.291Z,0.50
2022-11-18T05:54:51.655Z,0.50
2022-11-18T05:57:19.405Z,0.49
2022-11-18T05:59:47.156Z,0.47
2022-11-18T06:02:20.525Z,0.47
2022-11-18T06:05:00.050Z,0.47
2022-11-18T06:07:30.296Z,0.46
2022-11-18T06:10:05.588Z,0.46
2022-11-18T06:12:43.017Z,0.46
2022-11-18T06:15:28.570Z,0.45
2022-11-18T06:18:06.583Z,0.41
2022-11-18T06:20:36.691Z,0.40
2022-11-18T06:23:06.038Z,0.36
2022-11-18T06:25:39.221Z,0.32
2022-11-18T06:28:11.463Z,0.32
2022-11-18T06:30:40.372Z,0.30
2022-11-18T06:33:09.304Z,0.31
2022-11-18T06:35:37.068Z,0.33
2022-11-18T06:38:04.906Z,0.37
2022-11-18T06:40:34.943Z,0.40
2022-11-18T06:43:30.218Z,0.42
2022-11-18T06:46:19.178Z,0.44
2022-11-18T06:48:48.022Z,0.47
2022-11-18T06:51:16.821Z,0.48
2022-11-18T06:53:44.562Z,0.50
2022-11-18T06:56:16.717Z,0.52
2022-11-18T06:58:46.599Z,0.53
2022-11-18T07:01:14.665Z,0.56
2022-11-18T07:03:44.891Z,0.57
2022-11-18T07:06:16.270Z,0.59
2022-11-18T07:08:45.126Z,0.62
2022-11-18T07:11:16.748Z,0.64
2022-11-18T07:13:46.060Z,0.68
2022-11-18T07:16:17.609Z,0.70
2022-11-18T07:18:49.596Z,0.71
2022-11-18T07:21:25.857Z,0.71
2022-11-18T07:23:56.376Z,0.71
2022-11-18T07:26:24.867Z,0.72
2022-11-18T07:28:54.450Z,0.73
2022-11-18T07:31:22.546Z,0.73
2022-11-18T07:33:55.243Z,0.74
2022-11-18T07:36:27.786Z,0.76
2022-11-18T07:39:00.117Z,0.77
2022-11-18T07:41:30.094Z,0.77
2022-11-18T07:44:01.110Z,0.77
2022-11-18T07:46:30.638Z,0.78
2022-11-18T07:49:00.971Z,0.79
2022-11-18T07:51:32.776Z,0.79
2022-11-18T07:54:01.749Z,0.81
2022-11-18T07:56:29.530Z,0.84
2022-11-18T07:58:57.325Z,0.86
2022-11-18T08:01:30.923Z,0.88
2022-11-18T08:04:05.382Z,0.89
2022-11-18T08:06:35.196Z,0.85
2022-11-18T08:09:04.656Z,0.85
2022-11-18T08:11:33.137Z,0.86
2022-11-18T08:14:01.438Z,0.87
2022-11-18T08:16:30.093Z,0.89
2022-11-18T08:18:59.828Z,0.90
2022-11-18T08:21:27.651Z,0.91
2022-11-18T08:23:57.585Z,0.92
2022-11-18T08:26:26.974Z,0.93
2022-11-18T08:28:55.288Z,0.94
2022-11-18T08:31:28.454Z,0.95
2022-11-18T08:34:07.078Z,0.96
2022-11-18T08:36:37.617Z,0.95
2022-11-18T08:39:08.700Z,0.96
2022-11-18T08:41:39.206Z,0.95
2022-11-18T08:44:10.321Z,0.94
2022-11-18T08:46:38.386Z,0.94
2022-11-18T08:49:06.478Z,0.93
2022-11-18T08:51:34.480Z,0.94
2022-11-18T08:54:02.496Z,0.94
2022-11-18T08:56:31.397Z,0.94
2022-11-18T08:59:02.110Z,0.97
2022-11-18T09:01:30.038Z,1.01
2022-11-18T09:03:58.259Z,1.02
2022-11-18T09:06:30.602Z,1.03
2022-11-18T09:09:02.082Z,1.04
2022-11-18T09:11:35.588Z,1.03
2022-11-18T09:16:51.693Z,0.98
2022-11-18T09:22:08.692Z,0.97
2022-11-18T09:24:37.555Z,0.94
2022-11-18T09:27:12.144Z,0.94
2022-11-18T09:29:43.897Z,0.93
2022-11-18T09:32:12.372Z,0.93
2022-11-18T09:34:40.129Z,0.93
2022-11-18T09:37:08.318Z,0.93
2022-11-18T09:39:37.459Z,0.94
2022-11-18T09:42:26.973Z,0.93
2022-11-18T09:45:11.835Z,0.91
2022-11-18T09:47:41.487Z,0.90
2022-11-18T09:50:47.177Z,0.91
2022-11-18T09:53:18.766Z,0.90
2022-11-18T09:55:48.171Z,0.88
2022-11-18T09:58:21.758Z,0.86
2022-11-18T10:00:49.711Z,0.86
2022-11-18T10:03:29.115Z,0.85
2022-11-18T10:06:12.519Z,0.84
2022-11-18T10:09:05.902Z,0.82
2022-11-18T10:11:47.592Z,0.81
2022-11-18T10:14:44.699Z,0.80
2022-11-18T10:17:31.513Z,0.80
2022-11-18T10:20:10.496Z,0.79
2022-11-18T10:22:56.182Z,0.79
2022-11-18T10:25:24.433Z,0.76
2022-11-18T10:27:52.895Z,0.75
2022-11-18T10:30:26.266Z,0.72
2022-11-18T10:33:04.540Z,0.69
2022-11-18T10:35:36.246Z,0.68
2022-11-18T10:38:13.149Z,0.66
2022-11-18T10:40:49.831Z,0.66
2022-11-18T10:43:45.635Z,0.65
2022-11-18T10:46:31.190Z,0.58
2022-11-18T10:49:11.161Z,0.52
2022-11-18T10:51:42.667Z,0.51
2022-11-18T10:54:20.031Z,0.51
2022-11-18T10:56:57.742Z,0.51
2022-11-18T10:59:56.899Z,0.49
2022-11-18T11:02:41.487Z,0.46
2022-11-18T11:05:23.613Z,0.45
2022-11-18T11:08:36.242Z,0.45
2022-11-18T11:11:05.395Z,0.42
2022-11-18T11:13:39.032Z,0.37
2022-11-18T11:16:07.431Z,0.36
2022-11-18T11:18:41.778Z,0.33
2022-11-18T11:21:14.346Z,0.32
2022-11-18T11:23:43.808Z,0.30
2022-11-18T11:30:01.256Z,0.25
2022-11-18T11:32:43.702Z,0.21
2022-11-18T11:35:20.359Z,0.20
2022-11-18T11:37:55.805Z,0.16
2022-11-18T11:40:55.919Z,0.16
2022-11-18T11:43:55.599Z,0.16
2022-11-18T11:47:27.294Z,0.14
2022-11-18T11:50:02.168Z,0.08
2022-11-18T11:52:43.506Z,0.08
2022-11-18T11:55:50.010Z,0.09
2022-11-18T11:58:33.208Z,0.08
2022-11-18T12:01:14.380Z,0.05
2022-11-18T12:03:53.508Z,0.04
2022-11-18T12:06:21.973Z,0.02
2022-11-18T12:09:08.006Z,-0.01
2022-11-18T12:11:55.886Z,-0.02
2022-11-18T12:14:46.715Z,-0.05
2022-11-18T12:17:21.767Z,-0.08
2022-11-18T12:19:49.728Z,-0.08
2022-11-18T12:22:17.493Z,-0.10
2022-11-18T12:24:45.227Z,-0.11
2022-11-18T12:27:34.795Z,-0.11
2022-11-18T12:30:04.506Z,-0.11
2022-11-18T12:32:58.048Z,-0.12
2022-11-18T12:35:28.737Z,-0.14
2022-11-18T12:37:56.444Z,-0.15
2022-11-18T12:40:48.869Z,-0.15
2022-11-18T12:43:50.847Z,-0.15
2022-11-18T12:46:49.597Z,-0.17
2022-11-18T12:49:23.732Z,-0.18
2022-11-18T12:51:59.752Z,-0.22
2022-11-18T12:54:28.044Z,-0.22
2022-11-18T12:57:00.296Z,-0.24
2022-11-18T12:59:36.883Z,-0.25
2022-11-18T13:02:12.023Z,-0.27
2022-11-18T13:04:45.827Z,-0.29
2022-11-18T13:07:37.735Z,-0.28
2022-11-18T13:10:29.609Z,-0.28
2022-11-18T13:12:57.749Z,-0.28
2022-11-18T13:16:04.859Z,-0.27
2022-11-18T13:18:32.650Z,-0.30
2022-11-18T13:21:20.783Z,-0.33
2022-11-18T13:24:00.397Z,-0.34
2022-11-18T13:26:32.570Z,-0.34
2022-11-18T13:29:37.752Z,-0.32
2022-11-18T13:32:21.064Z,-0.32
2022-11-18T13:34:55.163Z,-0.31
2022-11-18T13:37:29.510Z,-0.32
2022-11-18T13:39:57.936Z,-0.33
2022-11-18T13:42:34.673Z,-0.34
2022-11-18T13:45:03.801Z,-0.33
2022-11-18T13:47:45.372Z,-0.32
2022-11-18T13:50:15.458Z,-0.30
2022-11-18T13:53:02.041Z,-0.33
2022-11-18T13:55:36.860Z,-0.35
2022-11-18T13:59:02.500Z,-0.36
2022-11-18T14:01:33.826Z,-0.36
2022-11-18T14:04:05.367Z,-0.34
2022-11-18T14:06:41.361Z,-0.32
2022-11-18T14:09:15.596Z,-0.32
2022-11-18T14:11:57.561Z,-0.32
2022-11-18T14:14:38.125Z,-0.30
2022-11-18T14:17:21.859Z,-0.30
2022-11-18T14:19:53.471Z,-0.30
2022-11-18T14:22:26.395Z,-0.33
2022-11-18T14:25:00.865Z,-0.34
2022-11-18T14:27:36.747Z,-0.36
2022-11-18T14:30:23.459Z,-0.38
2022-11-18T14:33:15.017Z,-0.38
2022-11-18T14:36:14.549Z,-0.38
2022-11-18T14:39:11.233Z,-0.38
2022-11-18T14:41:47.379Z,-0.38
2022-11-18T14:44:16.413Z,-0.38
2022-11-18T14:46:48.892Z,-0.39
2022-11-18T14:49:19.365Z,-0.40
2022-11-18T14:51:48.576Z,-0.42
2022-11-18T14:54:25.433Z,-0.41
2022-11-18T14:57:03.101Z,-0.41
2022-11-18T14:59:31.022Z,-0.41
2022-11-18T15:01:59.838Z,-0.42
2022-11-18T15:04:28.294Z,-0.44
2022-11-18T15:06:56.689Z,-0.45
2022-11-18T15:09:24.778Z,-0.45
2022-11-18T15:11:52.551Z,-0.45
2022-11-18T15:14:20.648Z,-0.45
2022-11-18T15:16:49.015Z,-0.48
2022-11-18T15:19:16.841Z,-0.48
2022-11-18T15:21:47.040Z,-0.49
2022-11-18T15:24:14.879Z,-0.50
2022-11-18T15:26:45.968Z,-0.52
2022-11-18T15:29:22.411Z,-0.54
2022-11-18T15:31:51.593Z,-0.56
2022-11-18T15:34:21.634Z,-0.58
2022-11-18T15:36:50.242Z,-0.59
2022-11-18T15:39:18.015Z,-0.58
2022-11-18T15:41:46.506Z,-0.57
2022-11-18T15:44:18.161Z,-0.57
2022-11-18T15:46:48.321Z,-0.57
2022-11-18T15:49:17.731Z,-0.60
2022-11-18T15:51:45.982Z,-0.62
2022-11-18T15:54:13.735Z,-0.62
2022-11-18T15:56:42.179Z,-0.60
2022-11-18T15:59:12.355Z,-0.58
2022-11-18T16:01:43.293Z,-0.56
2022-11-18T16:04:13.838Z,-0.55
2022-11-18T16:06:43.692Z,-0.54
2022-11-18T16:09:16.492Z,-0.56
2022-11-18T16:12:03.632Z,-0.56
2022-11-18T16:14:33.429Z,-0.59
2022-11-18T16:17:01.205Z,-0.58
2022-11-18T16:19:33.746Z,-0.57
2022-11-18T16:22:01.888Z,-0.56
2022-11-18T16:24:29.769Z,-0.56
2022-11-18T16:26:57.577Z,-0.56
2022-11-18T16:29:25.635Z,-0.55
2022-11-18T16:31:54.964Z,-0.55
2022-11-18T16:34:25.476Z,-0.55
2022-11-18T16:36:59.969Z,-0.54
2022-11-18T16:39:29.563Z,-0.56
2022-11-18T16:42:07.501Z,-0.56
2022-11-18T16:44:37.852Z,-0.55
2022-11-18T16:47:13.906Z,-0.54
2022-11-18T16:49:44.335Z,-0.53
2022-11-18T16:52:12.706Z,-0.53
2022-11-18T16:54:45.154Z,-0.53
2022-11-18T16:57:14.448Z,-0.54
2022-11-18T16:59:42.336Z,-0.56
2022-11-18T17:02:13.221Z,-0.57
2022-11-18T17:04:42.286Z,-0.60
2022-11-18T17:07:10.171Z,-0.63
2022-11-18T17:09:41.955Z,-0.62
2022-11-18T17:12:09.714Z,-0.61
2022-11-18T17:14:38.811Z,-0.61
2022-11-18T17:17:07.929Z,-0.60
2022-11-18T17:19:35.949Z,-0.61
2022-11-18T17:22:04.180Z,-0.61
2022-11-18T17:24:33.139Z,-0.61
2022-11-18T17:27:01.325Z,-0.62
2022-11-18T17:29:29.134Z,-0.61
2022-11-18T17:31:56.852Z,-0.62
2022-11-18T17:34:24.578Z,-0.59
2022-11-18T17:36:52.576Z,-0.57
2022-11-18T17:39:21.115Z,-0.57
2022-11-18T17:42:07.731Z,-0.58
2022-11-18T17:44:35.499Z,-0.57
2022-11-18T17:47:03.366Z,-0.56
2022-11-18T17:49:31.179Z,-0.55
2022-11-18T17:51:58.980Z,-0.54
2022-11-18T17:54:26.822Z,-0.54
2022-11-18T17:56:54.685Z,-0.54
2022-11-18T17:59:23.342Z,-0.55
2022-11-18T18:01:57.311Z,-0.55
2022-11-18T18:04:27.705Z,-0.54
2022-11-18T18:06:55.616Z,-0.54
2022-11-18T18:09:28.838Z,-0.53
2022-11-18T18:12:00.412Z,-0.52
2022-11-18T18:14:28.644Z,-0.54
2022-11-18T18:16:56.477Z,-0.54
2022-11-18T18:19:25.400Z,-0.55
2022-11-18T18:21:53.815Z,-0.54
2022-11-18T18:24:22.477Z,-0.55
2022-11-18T18:26:50.959Z,-0.55
2022-11-18T18:29:18.910Z,-0.57
2022-11-18T18:31:46.664Z,-0.57
2022-11-18T18:34:15.387Z,-0.58
2022-11-18T18:36:43.684Z,-0.58
2022-11-18T18:39:11.411Z,-0.62
2022-11-18T18:41:39.194Z,-0.65
2022-11-18T18:44:07.532Z,-0.66
2022-11-18T18:46:36.967Z,-0.68
2022-11-18T18:49:06.299Z,-0.68
2022-11-18T18:51:42.491Z,-0.67
2022-11-18T18:54:12.817Z,-0.67
2022-11-18T18:56:40.756Z,-0.68
2022-11-18T18:59:09.968Z,-0.71
2022-11-18T19:01:39.444Z,-0.72
2022-11-18T19:04:11.592Z,-0.71
2022-11-18T19:06:53.248Z,-0.71
2022-11-18T19:09:25.324Z,-0.73
2022-11-18T19:12:12.977Z,-0.77
2022-11-18T19:14:41.721Z,-0.78
2022-11-18T19:17:11.619Z,-0.78
2022-11-18T19:20:00.274Z,-0.79
2022-11-18T19:22:33.341Z,-0.78
2022-11-18T19:25:01.962Z,-0.77
2022-11-18T19:27:30.762Z,-0.75
2022-11-18T19:29:58.637Z,-0.73
2022-11-18T19:32:26.456Z,-0.73
2022-11-18T19:34:54.264Z,-0.77
2022-11-18T19:37:22.061Z,-0.79
2022-11-18T19:39:49.900Z,-0.82
2022-11-18T19:42:17.686Z,-0.85
2022-11-18T19:44:45.531Z,-0.88
2022-11-18T19:47:13.277Z,-0.88
2022-11-18T19:49:41.110Z,-0.89
2022-11-18T19:52:09.610Z,-0.91
2022-11-18T19:54:39.153Z,-0.91
2022-11-18T19:57:08.384Z,-0.92
2022-11-18T19:59:36.436Z,-0.92
2022-11-18T20:02:05.265Z,-0.94
2022-11-18T20:04:33.231Z,-0.95
2022-11-18T20:07:01.087Z,-0.95
2022-11-18T20:09:29.405Z,-0.95
2022-11-18T20:11:57.249Z,-0.95
2022-11-18T20:14:25.567Z,-0.96
2022-11-18T20:16:53.366Z,-0.98
2022-11-18T20:19:21.455Z,-1.00
2022-11-18T20:21:49.649Z,-1.01
2022-11-18T20:24:18.997Z,-1.04
2022-11-18T20:26:47.852Z,-1.05
2022-11-18T20:29:15.875Z,-1.08
2022-11-18T20:31:44.112Z,-1.11
2022-11-18T20:34:16.698Z,-1.14
2022-11-18T20:36:45.067Z,-1.17
2022-11-18T20:39:16.753Z,-1.19
2022-11-18T20:42:04.384Z,-1.24
2022-11-18T20:44:32.226Z,-1.27
2022-11-18T20:47:00.481Z,-1.33
2022-11-18T20:49:28.713Z,-1.39
2022-11-18T20:51:56.942Z,-1.43
2022-11-18T20:54:24.720Z,-1.48
2022-11-18T20:56:52.510Z,-1.52
2022-11-18T20:59:20.532Z,-1.56
2022-11-18T21:01:49.503Z,-1.62
2022-11-18T21:04:17.636Z,-1.67
2022-11-18T21:06:46.080Z,-1.73
2022-11-18T21:09:14.662Z,-1.77
2022-11-18T21:11:42.429Z,-1.81
2022-11-18T21:14:25.742Z,-1.83
2022-11-18T21:16:57.755Z,-1.87
2022-11-18T21:19:26.708Z,-1.88
2022-11-18T21:21:56.094Z,-1.90
2022-11-18T21:24:29.027Z,-1.94
2022-11-18T21:26:58.369Z,-1.99
2022-11-18T21:29:28.721Z,-2.04
2022-11-18T21:32:01.691Z,-2.12
2022-11-18T21:34:30.591Z,-2.18
2022-11-18T21:36:58.408Z,-2.29
2022-11-18T21:39:27.571Z,-2.42
2022-11-18T21:41:57.120Z,-2.48
2022-11-18T21:44:28.689Z,-2.52
2022-11-18T21:46:57.946Z,-2.53
2022-11-18T21:49:25.707Z,-2.57
2022-11-18T21:51:53.756Z,-2.62
2022-11-18T21:54:21.530Z,-2.66
2022-11-18T21:56:49.514Z,-2.70
2022-11-18T21:59:18.253Z,-2.72
2022-11-18T22:01:46.578Z,-2.74
2022-11-18T22:04:34.388Z,-2.74
2022-11-18T22:07:02.265Z,-2.74
2022-11-18T22:09:35.882Z,-2.77
2022-11-18T22:12:07.112Z,-2.81
2022-11-18T22:14:36.722Z,-2.81
2022-11-18T22:17:05.241Z,-2.83
2022-11-18T22:19:33.101Z,-2.82
2022-11-18T22:22:01.384Z,-2.85
2022-11-18T22:24:29.152Z,-2.88
2022-11-18T22:26:58.089Z,-2.93
2022-11-18T22:29:26.439Z,-2.96
2022-11-18T22:31:54.841Z,-2.97
2022-11-18T22:34:22.576Z,-3.02
2022-11-18T22:36:50.360Z,-3.09
2022-11-18T22:39:18.392Z,-3.12
2022-11-18T22:42:05.505Z,-3.18
2022-11-18T22:44:33.315Z,-3.22
2022-11-18T22:47:01.079Z,-3.28
2022-11-18T22:49:29.083Z,-3.32
2022-11-18T22:51:57.092Z,-3.34
2022-11-18T22:54:38.866Z,-3.37
2022-11-18T22:57:09.122Z,-3.42
2022-11-18T22:59:37.114Z,-3.45
2022-11-18T23:02:06.104Z,-3.46
2022-11-18T23:04:34.325Z,-3.46
2022-11-18T23:07:02.742Z,-3.46
2022-11-18T23:09:30.981Z,-3.49
2022-11-18T23:12:17.531Z,-3.50
2022-11-18T23:14:46.247Z,-3.54
2022-11-18T23:17:14.668Z,-3.56
2022-11-18T23:19:44.212Z,-3.57
2022-11-18T23:22:13.730Z,-3.58
2022-11-18T23:24:41.631Z,-3.58
2022-11-18T23:27:10.093Z,-3.57
2022-11-18T23:29:37.913Z,-3.56
2022-11-18T23:32:05.747Z,-3.55
2022-11-18T23:34:33.907Z,-3.57
2022-11-18T23:37:01.695Z,-3.63
2022-11-18T23:39:29.754Z,-3.69
2022-11-18T23:41:58.053Z,-3.73
2022-11-18T23:44:45.354Z,-3.76
2022-11-18T23:47:14.495Z,-3.80
2022-11-18T23:49:42.259Z,-3.82
2022-11-18T23:52:10.184Z,-3.83
2022-11-18T23:54:38.076Z,-3.84
2022-11-18T23:57:05.933Z,-3.83
2022-11-18T23:59:33.856Z,-3.82
